NCAR-RAP Real-Time Weather Data

Output produced by METARs form (17 July 2018  09:18 UTC)
found at http://weather.rap.ucar.edu/surface/
 
Conditions at: KIND observed 17 July 2018  08:54 UTC
Temperature: 23.3°C (74°F)
Dewpoint: 16.7°C (62°F) [RH = 66%]
Pressure (altimeter): 29.97 inches Hg (1015.0 mb)
[Sea-level pressure: 1014.0 mb]
Winds: from the N (10 degrees) at 8 MPH (7 knots; 3.6 m/s)
Visibility: 10 or more miles (16+ km)
Ceiling: at least 12,000 feet AGL
Clouds: few clouds at 9000 feet AGL
Present Weather: no significant weather observed at this time
KIND 170854Z 01007KT 10SM FEW090 23/17 A2997 RMK AO2 SLP140 T02330167 51005